Live WebCam Live WebCam



No particular awareness of the weather is required.    There are no Weather-warnings

Nearby METAR Reports

  
ENBR - Bergen/Flesland, Norway
Distance from station: E 6km
Updated: 20-08-2017 16:50
Mostly Cloudy
Mostly Cloudy  
 Wind from NW
Wind: NW 15 km/h
Temperature:  15°C
Dew Point:  11°C
Humidity:  77%
Barometer:  1010 hPa
Clouds:  Mostly Cloudy
Visibility:  10 km
Cloud details:  Few Clouds 518 m
Partly Cloudy 671 m
Mostly Cloudy 1524 m
2017/08/20 14:50 ENBR 201450Z 31008KT 9999 FEW017 SCT022 BKN050 15/11 Q1010 NOSIG RMK WIND 1200FT 30011KT
ENSO - Stord/Soerstokke, Norway
Distance from station: SSE 56km
Updated: 20-08-2017 16:20
Clear
Clear  
 Wind from NW
Wind: NW 24 km/h
Temperature:  15°C
Dew Point:  11°C
Humidity:  77%
Barometer:  1010 hPa
Summary:  Clear
Visibility:  greater than 10 km
2017/08/20 14:20 ENSO 201420Z 32013KT CAVOK 15/11 Q1010
ENQA - Troll-A Heli, Norway
Distance from station: WNW 87km
Updated: 20-08-2017 16:50
Overcast
Overcast  
 Wind from NNW
Wind: NNW 46 km/h
Temperature:  13°C
Dew Point:  12°C
Humidity:  94%
Barometer:  1012 hPa
Clouds:  Overcast
Visibility:  16 miles
Cloud details:  Mostly Cloudy 640 m
Overcast 1463 m
2017/08/20 14:50 ENQA 201450Z AUTO 33025KT 9999NDV BKN021/// OVC048/// 13/12 Q1012 W12/S4
ENHD - Haugesund/Karmoy, Norway
Distance from station: S 103km
Updated: 20-08-2017 16:50
Mostly Cloudy
Mostly Cloudy  
 Wind from NW
Wind: NW 24 km/h
Temperature:  16°C
Dew Point:  11°C
Humidity:  72%
Barometer:  1011 hPa
Clouds:  Mostly Cloudy
Visibility:  10 km
Cloud details:  Few Clouds 457 m
Mostly Cloudy 518 m
2017/08/20 14:50 ENHD 201450Z 31013KT 9999 FEW015TCU BKN017 16/11 Q1011
ENQC - Troll-C Heli, Norway
Distance from station: NW 106km
Updated: 20-08-2017 16:50
Overcast
Overcast  
 Wind from NW
Wind: NW 41 km/h
Temperature:  14°C
Dew Point:  12°C
Humidity:  88%
Barometer:  1011 hPa
Clouds:  Overcast
Visibility:  13 miles
Cloud details:  Overcast 244 m
2017/08/20 14:50 ENQC 201450Z AUTO 31022KT 8000NDV OVC008/// 14/12 Q1011 W///S4
ENOA - Oseberg, Norway
Distance from station: WNW 128km
Updated: 20-08-2017 16:50
Light Rain Showers, Mostly Cloudy
Light Rain Showers, Mostly Cloudy  
 Wind from NNW
Wind: NNW 43 km/h
Temperature:  13°C
Dew Point:  12°C
Humidity:  94%
Barometer:  1012 hPa
Summary:  Light Rain Showers
Clouds:  Mostly Cloudy
Visibility:  9 km
Cloud details:  Partly Cloudy 244 m
Mostly Cloudy 914 m
2017/08/20 14:50 ENOA 201450Z 34023KT 9000 -SHRA SCT008 BKN030 13/12 Q1012 W///S5
ENBL - Forde/Bringeland, Norway
Distance from station: NNE 130km
Updated: 20-08-2017 16:50
Nearby showers, Mostly Cloudy
Nearby showers, Mostly Cloudy  
 Wind from WSW
Wind: WSW 9 km/h
Temperature:  12°C
Dew Point:  10°C
Humidity:  88%
Barometer:  1010 hPa
Summary:  Nearby Showers
Clouds:  Mostly Cloudy
Visibility:  10 km
Cloud details:  Few Clouds 91 m
Partly Cloudy 305 m
Mostly Cloudy 762 m
2017/08/20 14:50 ENBL 201450Z 24005KT 9999 VCSH FEW003 SCT010 BKN025 12/10 Q1010
ENFL - Floro, Norway
Distance from station: N 144km
Updated: 20-08-2017 16:50
Light Rain Showers, Mostly Cloudy
Light Rain Showers, Mostly Cloudy  
 Wind from WNW
Wind: WNW 7 km/h
Temperature:  13°C
Dew Point:  11°C
Humidity:  88%
Barometer:  1010 hPa
Summary:  Light Rain Showers
Clouds:  Mostly Cloudy
Visibility:  10 km
Cloud details:  Few Clouds 244 m
Partly Cloudy 396 m
Mostly Cloudy 549 m
2017/08/20 14:50 ENFL 201450Z 30004KT 9999 -SHRA FEW008 SCT013 BKN018 13/11 Q1010
ENSG - Sogndal/Haukasen, Norway
Distance from station: NE 145km
Updated: 20-08-2017 16:50
Light Rain Showers, Mostly Cloudy
Light Rain Showers, Mostly Cloudy  
 Wind from W
Wind: W 19 km/h
Temperature:  12°C
Dew Point:  8°C
Humidity:  77%
Barometer:  1009 hPa
Summary:  Light Rain Showers
Clouds:  Mostly Cloudy
Visibility:  10 km
Cloud details:  Few Clouds 91 m
Mostly Cloudy 1372 m
2017/08/20 14:50 ENSG 201450Z 28010KT 9999 -SHRA FEW003 BKN045 12/08 Q1009 RMK WIND 3806FT 28015KT
ENZV - Stavanger/Sola(A, Norway
Distance from station: S 159km
Updated: 20-08-2017 16:50
Partly Cloudy
Partly Cloudy  
 Wind from WNW
Wind: WNW 35 km/h
Temperature:  15°C
Dew Point:  11°C
Humidity:  77%
Barometer:  1011 hPa
Clouds:  Partly Cloudy
Visibility:  10 km
Cloud details:  Partly Cloudy 549 m
Partly Cloudy 1524 m
2017/08/20 14:50 ENZV 201450Z 30019KT 9999 SCT018TCU SCT050 15/11 Q1011 NOSIG
ENHM - Heimdal Oilp, Norway
Distance from station: WSW 179km
Updated: 20-08-2017 16:50
Mostly Cloudy
Mostly Cloudy  
 Wind from N
Wind: N 48 km/h
Temperature:  13°C
Dew Point:  11°C
Humidity:  88%
Barometer:  1013 hPa
Clouds:  Mostly Cloudy
Visibility:  10 km
Cloud details:  Few Clouds 305 m
Partly Cloudy 549 m
Mostly Cloudy 701 m
2017/08/20 14:50 ENHM 201450Z 35026KT 9999 FEW010 SCT018 BKN023 13/11 Q1013 W15/S4
ENSD - Sandane/Anda, Norway
Distance from station: NNE 180km
Updated: 20-08-2017 16:50
Light rain, Overcast
Light rain, Overcast  
 Wind from NNE
Wind: NNE 6 km/h
Temperature:  13°C
Dew Point:  13°C
Humidity:  100%
Barometer:  1010 hPa
Summary:  Light Rain
Clouds:  Overcast
Visibility:  10 km
Cloud details:  Few Clouds 183 m
Partly Cloudy 518 m
Overcast 1006 m
2017/08/20 14:50 ENSD 201450Z 03003KT 330V080 9999 -RA FEW006 SCT017 VV033 13/13 Q1010 RMK WIND 1138FT 30004KT

Script developed by  Saratoga-weather.org Adapted for the template by  Weerstation Leuven